Latest Weather Observations for Oodnadatta

IDS60801

Issued at 6:01 pm CST Tuesday 27 September 2016 (issued every 30 minutes, with the page automatically refreshed every 10 minutes)

About weather observations | Map of weather stations | Latest weather observations for SA | Other Formats
Station Details ID: 017043 Name: OODNADATTA AIRPORT Lat: -27.56 Lon: 135.45 Height: 116.5 m
Data from the previous 72 hours. | See also: Recent months at Oodnadatta
Date/Time
CST
Temp
°C
App
Temp
°C
Dew
Point
°C
Rel
Hum
%
Delta-T
°C
Wind Press
QNH
hPa
Press
MSL
hPa
Rain since
9am
mm
Dir  Spd
km/h
Gust
km/h
Spd
kts
Gust
kts
27/06:00pm 26.7 24.1 9.5 34 9.5 ENE 13 17 7 9 1010.6 1010.3 0.0
27/05:30pm 27.3 24.7 9.2 32 10.0 ENE 13 19 7 10 1010.8 1010.5 0.0
27/05:00pm 27.3 24.5 8.7 31 10.2 E 13 20 7 11 1010.8 1010.5 0.0
27/04:30pm 27.3 24.2 8.7 31 10.2 ENE 15 22 8 12 1011.0 1010.7 0.0
27/04:00pm 27.9 25.1 8.7 30 10.6 ENE 13 20 7 11 1011.2 1010.9 0.0
27/03:30pm 27.0 24.2 8.4 31 10.1 N 13 20 7 11 1011.6 1011.3 0.0
27/03:00pm 26.6 23.6 7.6 30 10.2 NE 13 22 7 12 1011.9 1011.6 0.0
27/02:30pm 26.7 24.5 7.7 30 10.2 ESE 9 24 5 13 1012.4 1012.1 0.0
27/02:00pm 26.3 23.7 7.8 31 9.9 SE 11 22 6 12 1013.1 1012.8 0.0
27/01:30pm 25.2 22.9 7.3 32 9.5 E 9 22 5 12 1013.8 1013.5 0.0
27/01:00pm 24.5 21.3 6.7 32 9.3 ESE 13 20 7 11 1014.3 1014.0 0.0
27/12:30pm 24.2 21.8 6.9 33 9.0 ESE 9 19 5 10 1014.9 1014.6 0.0
27/12:00pm 24.2 21.2 7.8 35 8.7 SE 13 22 7 12 1015.6 1015.3 0.0
27/11:30am 23.5 19.6 7.2 35 8.5 ESE 17 22 9 12 1016.1 1015.8 0.0
27/11:00am 22.3 18.6 6.5 36 8.1 ESE 15 24 8 13 1016.6 1016.3 0.0
27/10:30am 22.2 18.5 6.4 36 8.1 SE 15 20 8 11 1017.0 1016.7 0.0
27/10:00am 21.0 16.9 6.2 38 7.5 ESE 17 24 9 13 1017.0 1016.7 0.0
27/09:30am 19.9 15.7 5.5 39 7.1 ESE 17 22 9 12 1017.3 1017.1 0.0
27/09:00am 18.5 13.9 5.4 42 6.4 ESE 19 24 10 13 1017.2 1016.9 0.0
27/08:30am 17.9 13.6 7.0 49 5.5 E 19 24 10 13 1017.3 1017.1 0.0
27/08:00am 15.1 11.7 5.9 54 4.4 E 13 17 7 9 1017.3 1017.1 0.0
27/07:30am 13.1 9.1 5.0 58 3.8 SSE 15 17 8 9 1016.9 1016.6 0.0
27/07:00am 12.0 8.4 5.2 63 3.2 S 13 19 7 10 1016.4 1016.1 0.0
27/06:30am 11.4 8.1 4.8 64 3.0 SSW 11 13 6 7 1016.1 1015.8 0.0
27/06:00am 11.8 8.2 5.0 63 3.1 SSW 13 17 7 9 1015.8 1015.5 0.0
27/05:30am 12.1 8.6 5.5 64 3.1 SW 13 15 7 8 1015.2 1014.9 0.0
27/05:00am 12.2 9.7 6.7 69 2.6 WSW 9 11 5 6 1015.0 1014.7 0.0
27/04:30am 12.7 10.7 7.2 69 2.7 W 7 11 4 6 1014.8 1014.5 0.0
27/04:00am 12.8 9.3 7.0 68 2.8 NNW 15 17 8 9 1014.3 1014.0 0.0
27/03:30am 13.7 11.0 7.2 65 3.2 NNW 11 13 6 7 1014.5 1014.2 0.0
27/03:00am 13.5 10.7 7.1 65 3.1 NNW 11 11 6 6 1014.5 1014.2 0.0
27/02:30am 14.4 12.4 7.2 62 3.5 NNW 7 9 4 5 1014.6 1014.3 0.0
27/02:00am 14.2 11.8 7.0 62 3.5 NNW 9 11 5 6 1014.7 1014.4 0.0
27/01:30am 15.0 13.2 7.1 59 3.9 NNW 6 7 3 4 1014.9 1014.6 0.0
27/01:00am 16.5 14.6 7.4 55 4.6 N 7 9 4 5 1015.1 1014.8 0.0
27/12:30am 16.8 14.1 7.2 53 4.8 N 11 13 6 7 1015.0 1014.7 0.0
27/12:00am 18.3 14.3 6.8 47 5.8 N 17 20 9 11 1015.0 1014.7 0.0
 
Date/Time
CST
Temp
°C
App
Temp
°C
Dew
Point
°C
Rel
Hum
%
Delta-T
°C
Wind Press
QNH
hPa
Press
MSL
hPa
Rain since
9am
mm
Dir  Spd
km/h
Gust
km/h
Spd
kts
Gust
kts
26/11:30pm 18.1 14.2 6.9 48 5.6 N 17 20 9 11 1015.2 1014.9 0.0
26/11:00pm 18.3 14.8 7.1 48 5.7 N 15 17 8 9 1015.4 1015.1 0.0
26/10:30pm 17.9 15.1 7.0 49 5.5 N 11 13 6 7 1015.7 1015.4 0.0
26/10:00pm 18.3 15.5 7.1 48 5.7 N 11 15 6 8 1015.6 1015.3 0.0
26/09:30pm 19.1 16.0 7.2 46 6.0 N 13 15 7 8 1015.4 1015.1 0.0
26/09:00pm 19.2 16.1 7.3 46 6.1 N 13 15 7 8 1015.5 1015.2 0.0
26/08:30pm 19.4 16.3 7.2 45 6.2 N 13 15 7 8 1015.5 1015.2 0.0
26/08:00pm 19.7 16.5 6.8 43 6.5 N 13 17 7 9 1015.5 1015.2 0.0
26/07:30pm 19.9 17.2 7.3 44 6.5 N 11 13 6 7 1015.3 1015.0 0.0
26/07:00pm 20.0 18.6 7.4 44 6.5 NNE 4 6 2 3 1014.6 1014.3 0.0
26/06:30pm 20.7 20.1 7.3 42 6.9 CALM 0 0 0 0 1014.1 1013.8 0.0
26/06:00pm 21.5 20.4 7.0 39 7.5 NNE 2 7 1 4 1013.8 1013.5 0.0
26/05:30pm 22.2 20.4 5.6 34 8.4 NNE 4 9 2 5 1013.3 1013.0 0.0
26/05:00pm 22.3 19.9 5.3 33 8.5 NNW 7 9 4 5 1013.0 1012.7 0.0
26/04:30pm 22.4 18.0 4.9 32 8.7 N 17 20 9 11 1012.8 1012.5 0.0
26/04:00pm 22.7 18.7 4.7 31 8.9 NNW 15 22 8 12 1013.1 1012.8 0.0
26/03:30pm 22.7 17.9 4.7 31 8.9 N 19 24 10 13 1012.6 1012.3 0.0
26/03:00pm 22.9 18.0 4.9 31 9.0 N 20 28 11 15 1012.9 1012.6 0.0
26/02:30pm 22.4 17.4 4.5 31 8.8 N 20 24 11 13 1013.2 1012.9 0.0
26/02:00pm 22.8 17.4 4.3 30 9.1 N 22 32 12 17 1013.2 1012.9 0.0
26/01:30pm 22.5 17.0 4.1 30 9.0 N 22 32 12 17 1013.9 1013.6 0.0
26/01:00pm 21.8 15.8 3.5 30 8.8 N 24 32 13 17 1014.1 1013.8 0.0
26/12:30pm 21.6 14.8 3.3 30 8.8 N 28 37 15 20 1014.1 1013.8 0.0
26/12:00pm 21.3 14.6 3.5 31 8.6 N 28 35 15 19 1014.6 1014.3 0.0
26/11:30am 20.7 14.3 3.0 31 8.4 N 26 33 14 18 1015.0 1014.7 0.0
26/11:00am 20.5 13.7 3.3 32 8.2 N 28 35 15 19 1015.2 1014.9 0.0
26/10:30am 20.2 14.4 2.5 31 8.3 N 22 30 12 16 1015.6 1015.3 0.0
26/10:00am 20.0 13.5 2.4 31 8.2 N 26 35 14 19 1015.7 1015.4 0.0
26/09:30am 19.2 13.5 2.6 33 7.7 N 22 28 12 15 1015.9 1015.6 0.0
26/09:00am 18.5 12.7 2.4 34 7.4 N 22 32 12 17 1015.9 1015.6 0.0
26/08:30am 18.2 12.8 2.5 35 7.2 N 20 28 11 15 1016.0 1015.7 0.0
26/08:00am 17.6 11.7 2.0 35 7.1 N 22 28 12 15 1015.7 1015.4 0.0
26/07:30am 16.2 11.4 2.6 40 6.2 N 17 22 9 12 1015.8 1015.5 0.0
26/07:00am 13.9 10.4 3.4 49 4.8 N 11 15 6 8 1015.4 1015.1 0.0
26/06:30am 13.7 9.0 3.2 49 4.7 NNE 17 19 9 10 1015.1 1014.8 0.0
26/06:00am 13.1 9.9 3.2 51 4.4 NE 9 13 5 7 1014.8 1014.5 0.0
26/05:30am 13.8 9.9 3.3 49 4.7 N 13 19 7 10 1014.5 1014.2 0.0
26/05:00am 13.4 10.3 3.5 51 4.5 NNE 9 13 5 7 1014.4 1014.1 0.0
26/04:30am 13.9 10.0 3.4 49 4.8 NNE 13 19 7 10 1014.1 1013.8 0.0
26/04:00am 13.8 9.6 3.9 51 4.5 N 15 20 8 11 1013.9 1013.6 0.0
26/03:30am 13.2 8.7 4.1 54 4.2 NNE 17 17 9 9 1014.2 1013.9 0.0
26/03:00am 14.4 9.8 3.5 48 5.0 N 17 20 9 11 1014.6 1014.3 0.0
26/02:30am 14.9 9.9 3.4 46 5.2 N 19 22 10 12 1015.0 1014.7 0.0
26/02:00am 14.7 10.6 4.1 49 4.9 N 15 19 8 10 1015.2 1014.9 0.0
26/01:30am 14.2 10.1 4.2 51 4.6 N 15 17 8 9 1015.3 1015.0 0.0
26/01:00am 13.3 9.2 4.2 54 4.2 NNE 15 15 8 8 1015.4 1015.1 0.0
26/12:30am 13.2 9.4 4.1 54 4.2 NE 13 15 7 8 1015.4 1015.1 0.0
26/12:00am 13.9 9.8 4.2 52 4.5 NE 15 17 8 9 1015.5 1015.2 0.0
 
Date/Time
CST
Temp
°C
App
Temp
°C
Dew
Point
°C
Rel
Hum
%
Delta-T
°C
Wind Press
QNH
hPa
Press
MSL
hPa
Rain since
9am
mm
Dir  Spd
km/h
Gust
km/h
Spd
kts
Gust
kts
25/11:30pm 14.4 10.1 3.5 48 5.0 NE 15 17 8 9 1016.0 1015.7 0.0
25/11:00pm 15.8 11.6 3.6 44 5.6 NNE 15 15 8 8 1016.3 1016.0 0.0
25/10:30pm 16.5 12.5 2.9 40 6.2 N 13 15 7 8 1016.4 1016.1 0.0
25/10:00pm 16.6 13.0 3.0 40 6.2 N 11 13 6 7 1016.5 1016.2 0.0
25/09:30pm 16.6 13.4 3.0 40 6.2 N 9 11 5 6 1016.6 1016.3 0.0
25/09:00pm 18.2 15.3 2.5 35 7.2 NW 7 7 4 4 1016.4 1016.1 0.0
25/08:30pm 17.8 15.9 2.9 37 6.9 NW 2 7 1 4 1016.0 1015.7 0.0
25/08:00pm 18.7 16.5 3.3 36 7.2 NW 4 7 2 4 1015.6 1015.3 0.0
25/07:30pm 19.3 17.7 2.6 33 7.8 CALM 0 0 0 0 1015.3 1015.0 0.0
25/07:00pm 19.5 16.6 2.8 33 7.8 NW 7 9 4 5 1014.9 1014.6 0.0
25/06:30pm 20.4 17.0 1.8 29 8.6 NNW 9 13 5 7 1014.5 1014.2 0.0
25/06:00pm 21.2 19.1 2.0 28 9.0 NW 2 7 1 4 1014.3 1014.0 0.0
25/05:30pm 21.8 18.8 2.0 27 9.3 NE 7 13 4 7 1014.2 1013.9 0.0
25/05:00pm 21.9 18.2 2.1 27 9.3 NNW 11 19 6 10 1014.0 1013.7 0.0
25/04:30pm 22.1 19.1 2.2 27 9.4 SSW 7 15 4 8 1014.0 1013.7 0.0
25/04:00pm 22.3 19.5 1.9 26 9.6 W 6 13 3 7 1014.3 1014.0 0.0
25/03:30pm 21.6 18.6 2.3 28 9.1 SE 7 13 4 7 1014.5 1014.2 0.0
25/03:00pm 21.6 18.3 2.3 28 9.1 ESE 9 13 5 7 1014.7 1014.4 0.0
25/02:30pm 22.0 18.0 2.7 28 9.2 SE 13 22 7 12 1015.1 1014.8 0.0
25/02:00pm 20.8 16.6 1.6 28 8.9 WSW 13 20 7 11 1015.4 1015.1 0.0
25/01:30pm 20.3 17.3 1.7 29 8.6 S 7 17 4 9 1016.1 1015.8 0.0
25/01:00pm 20.0 16.6 1.9 30 8.4 SE 9 20 5 11 1016.6 1016.3 0.0
25/12:30pm 19.4 14.9 1.9 31 8.0 SSE 15 20 8 11 1017.3 1017.1 0.0
25/12:00pm 18.8 14.6 1.8 32 7.7 SE 13 20 7 11 1017.8 1017.6 0.0
25/11:30am 17.9 14.1 1.8 34 7.3 SE 11 20 6 11 1018.2 1018.0 0.0
25/11:00am 17.6 13.2 2.8 37 6.8 SE 15 24 8 13 1018.5 1018.3 0.0
25/10:30am 17.2 12.6 3.5 40 6.4 SE 17 26 9 14 1018.7 1018.5 0.0
25/10:00am 16.4 11.5 4.1 44 5.8 SE 19 28 10 15 1019.1 1018.9 0.0
25/09:30am 15.4 10.5 4.2 47 5.2 E 19 26 10 14 1019.2 1019.0 0.0
25/09:00am 14.9 9.6 4.9 51 4.7 ESE 22 28 12 15 1019.0 1018.8 0.0
25/08:30am 14.3 8.7 5.4 55 4.2 ESE 24 30 13 16 1018.8 1018.6 0.0
25/08:00am 13.3 9.1 5.7 60 3.6 ESE 17 26 9 14 1018.5 1018.3 0.0
25/07:30am 11.9 10.0 4.9 62 3.2 SE 4 11 2 6 1018.2 1018.0 0.0
25/07:00am 10.0 8.0 4.2 67 2.6 S 4 7 2 4 1017.6 1017.4 0.0
25/06:30am 8.8 5.7 3.4 69 2.3 S 9 9 5 5 1017.1 1016.8 0.0
25/06:00am 9.0 5.5 3.6 69 2.3 SSE 11 13 6 7 1016.6 1016.3 0.0
25/05:30am 9.6 5.4 3.8 67 2.5 SSE 15 17 8 9 1015.9 1015.6 0.0
25/05:00am 10.3 6.1 3.8 64 2.9 SSE 15 17 8 9 1015.6 1015.3 0.0
25/04:30am 11.0 6.8 3.8 61 3.2 SSE 15 20 8 11 1015.1 1014.8 0.0
25/04:00am 11.6 6.7 4.1 60 3.4 SSE 19 24 10 13 1015.1 1014.8 0.0
25/03:30am 11.9 7.4 4.4 60 3.4 SSE 17 20 9 11 1014.9 1014.6 0.0
25/03:00am 12.1 8.4 4.3 59 3.5 SSE 13 19 7 10 1014.9 1014.6 0.0
25/02:30am 12.6 7.2 4.3 57 3.8 SSE 22 28 12 15 1014.6 1014.3 0.0
25/02:00am 12.7 9.0 4.2 56 3.9 SSE 13 17 7 9 1015.1 1014.8 0.0
25/01:30am 13.0 8.8 3.9 54 4.1 SSE 15 19 8 10 1015.1 1014.8 0.0
25/01:00am 13.8 8.9 3.9 51 4.5 SSE 19 24 10 13 1015.2 1014.9 0.0
25/12:30am 14.2 9.5 3.4 48 4.9 SSE 17 24 9 13 1015.5 1015.2 0.0
25/12:00am 14.8 9.1 2.7 44 5.4 SSE 22 30 12 16 1015.3 1015.0 0.0
 
Date/Time
CST
Temp
°C
App
Temp
°C
Dew
Point
°C
Rel
Hum
%
Delta-T
°C
Wind Press
QNH
hPa
Press
MSL
hPa
Rain since
9am
mm
Dir  Spd
km/h
Gust
km/h
Spd
kts
Gust
kts
24/11:30pm 15.5 8.8 1.6 39 6.1 S 26 32 14 17 1015.3 1015.0 0.0
24/11:00pm 15.9 10.3 1.2 37 6.5 S 20 24 11 13 1015.3 1015.0 0.0
24/10:30pm 16.6 11.0 1.5 36 6.7 S 20 24 11 13 1015.3 1015.0 0.0
24/10:00pm 17.3 11.0 1.7 35 7.0 S 24 32 13 17 1015.1 1014.8 0.0
24/09:30pm 17.9 11.3 1.8 34 7.3 S 26 33 14 18 1015.0 1014.7 0.0
24/09:00pm 18.5 11.9 1.9 33 7.6 SSW 26 33 14 18 1014.6 1014.3 0.0
24/08:30pm 19.4 12.5 2.3 32 7.9 SSW 28 35 15 19 1014.1 1013.8 0.0
24/08:00pm 19.8 13.8 3.1 33 7.9 SSW 24 30 13 16 1013.5 1013.2 0.0
24/07:30pm 20.7 13.5 3.0 31 8.4 SSW 30 39 16 21 1012.9 1012.6 0.0
24/07:00pm 21.7 14.3 1.9 27 9.3 SSW 30 39 16 21 1012.1 1011.8 0.0
24/06:30pm 22.7 15.8 2.8 27 9.5 SW 28 35 15 19 1011.5 1011.2 0.0

Other Formats:

Comma delimited format used in spreadsheet applications
http://www.bom.gov.au/fwo/IDS60801/IDS60801.94476.axf

JavaScript Object Notation format (JSON) in row-major order
http://www.bom.gov.au/fwo/IDS60801/IDS60801.94476.json